createdAt,value
2023-01-04T00:00:31.999Z,3.33
2023-01-04T00:02:58.498Z,3.08
2023-01-04T00:05:24.833Z,3.28
2023-01-04T00:07:51.141Z,2.85
2023-01-04T00:10:17.467Z,2.85
2023-01-04T00:12:43.771Z,3.00
2023-01-04T00:15:10.110Z,3.08
2023-01-04T00:17:36.412Z,3.28
2023-01-04T00:20:02.799Z,3.17
2023-01-04T00:22:29.107Z,2.80
2023-01-04T00:24:55.401Z,2.80
2023-01-04T00:27:21.710Z,2.87
2023-01-04T00:29:48.023Z,3.00
2023-01-04T00:32:14.337Z,3.08
2023-01-04T00:34:40.655Z,3.25
2023-01-04T00:37:07.560Z,3.42
2023-01-04T00:39:33.881Z,2.92
2023-01-04T00:42:05.376Z,3.10
2023-01-04T00:44:31.771Z,2.85
2023-01-04T00:46:58.137Z,2.90
2023-01-04T00:49:24.516Z,3.00
2023-01-04T00:51:50.892Z,3.25
2023-01-04T00:54:17.193Z,3.37
2023-01-04T00:56:43.636Z,3.20
2023-01-04T00:59:09.959Z,3.10
2023-01-04T01:01:36.527Z,2.87
2023-01-04T01:04:03.085Z,3.28
2023-01-04T01:06:29.527Z,3.25
2023-01-04T01:08:55.889Z,3.05
2023-01-04T01:11:22.198Z,3.30
2023-01-04T01:13:48.535Z,3.33
2023-01-04T01:16:14.989Z,3.08
2023-01-04T01:18:41.429Z,3.53
2023-01-04T01:21:07.768Z,3.03
2023-01-04T01:23:34.076Z,2.92
2023-01-04T01:26:00.407Z,3.40
2023-01-04T01:28:26.723Z,2.97
2023-01-04T01:30:53.085Z,3.15
2023-01-04T01:33:19.486Z,3.28
2023-01-04T01:35:45.830Z,2.92
2023-01-04T01:38:12.149Z,2.62
2023-01-04T01:40:38.495Z,3.40
2023-01-04T01:43:04.799Z,3.05
2023-01-04T01:45:31.154Z,2.80
2023-01-04T01:47:57.467Z,3.37
2023-01-04T01:50:24.010Z,3.15
2023-01-04T01:52:50.606Z,3.05
2023-01-04T01:55:17.747Z,2.75
2023-01-04T01:57:44.130Z,3.15
2023-01-04T02:00:10.480Z,2.72
2023-01-04T02:02:36.974Z,3.28
2023-01-04T02:05:03.476Z,3.15
2023-01-04T02:07:29.788Z,2.97
2023-01-04T02:09:56.173Z,3.03
2023-01-04T02:12:22.486Z,3.53
2023-01-04T02:14:48.804Z,3.75
2023-01-04T02:17:15.117Z,2.90
2023-01-04T02:19:41.433Z,3.20
2023-01-04T02:22:07.748Z,3.20
2023-01-04T02:24:34.049Z,3.33
2023-01-04T02:27:00.385Z,3.00
2023-01-04T02:29:26.746Z,3.25
2023-01-04T02:31:53.114Z,3.50
2023-01-04T02:34:19.502Z,2.85
2023-01-04T02:36:45.829Z,3.40
2023-01-04T02:39:12.201Z,3.10
2023-01-04T02:41:38.570Z,3.33
2023-01-04T02:44:23.556Z,3.22
2023-01-04T02:46:49.978Z,3.20
2023-01-04T02:49:35.221Z,3.08
2023-01-04T02:52:01.540Z,2.97
2023-01-04T02:54:30.117Z,2.83
2023-01-04T02:57:02.722Z,2.60
2023-01-04T02:59:31.677Z,2.60
2023-01-04T03:02:17.051Z,2.60
2023-01-04T03:05:02.405Z,2.60
2023-01-04T03:07:28.721Z,2.62
2023-01-04T03:09:55.048Z,2.60
2023-01-04T03:12:33.723Z,2.85
2023-01-04T03:15:00.563Z,3.42
2023-01-04T03:17:26.898Z,3.25
2023-01-04T03:19:55.259Z,3.40
2023-01-04T03:22:40.624Z,3.03
2023-01-04T03:25:25.718Z,3.00
2023-01-04T03:28:10.620Z,3.17
2023-01-04T03:30:55.749Z,3.20
2023-01-04T03:33:40.971Z,3.40
2023-01-04T03:36:07.310Z,3.67
2023-01-04T03:38:52.334Z,4.03
2023-01-04T03:41:37.616Z,4.10
2023-01-04T03:44:22.824Z,3.95
2023-01-04T03:47:08.013Z,4.22
2023-01-04T03:49:34.350Z,4.37
2023-01-04T03:52:00.670Z,4.62
2023-01-04T03:54:27.033Z,4.62
2023-01-04T03:56:53.366Z,5.53
2023-01-04T03:59:22.811Z,5.85
2023-01-04T04:01:49.225Z,6.28
2023-01-04T04:04:34.393Z,6.47
2023-01-04T04:07:19.428Z,6.15
2023-01-04T04:09:45.752Z,6.68
2023-01-04T04:12:12.063Z,6.70
2023-01-04T04:14:38.395Z,7.12
2023-01-04T04:17:04.729Z,7.22
2023-01-04T04:19:31.055Z,7.32
2023-01-04T04:21:57.383Z,7.05
2023-01-04T04:24:24.575Z,7.28
2023-01-04T04:26:50.976Z,7.15
2023-01-04T04:29:18.037Z,7.60
2023-01-04T04:31:44.394Z,7.03
2023-01-04T04:34:10.757Z,8.38
2023-01-04T04:36:37.069Z,8.02
2023-01-04T04:39:03.382Z,7.80
2023-01-04T04:41:38.848Z,7.72
2023-01-04T04:44:05.169Z,7.72
2023-01-04T04:46:31.505Z,7.03
2023-01-04T04:48:57.823Z,6.97
2023-01-04T04:51:24.130Z,7.35
2023-01-04T04:53:50.536Z,7.75
2023-01-04T04:56:16.908Z,7.87
2023-01-04T04:58:43.231Z,8.07
2023-01-04T05:01:09.670Z,7.55
2023-01-04T05:03:36.087Z,7.70
2023-01-04T05:06:02.461Z,7.30
2023-01-04T05:08:28.835Z,7.20
2023-01-04T05:10:55.140Z,7.50
2023-01-04T05:13:21.462Z,7.68
2023-01-04T05:15:47.942Z,8.13
2023-01-04T05:18:14.316Z,7.70
2023-01-04T05:20:40.626Z,7.75
2023-01-04T05:23:06.954Z,7.53
2023-01-04T05:25:33.273Z,7.28
2023-01-04T05:27:59.625Z,7.35
2023-01-04T05:30:44.860Z,7.57
2023-01-04T05:33:11.236Z,7.82
2023-01-04T05:35:37.589Z,8.15
2023-01-04T05:38:03.920Z,7.43
2023-01-04T05:40:30.256Z,8.32
2023-01-04T05:42:56.576Z,7.72
2023-01-04T05:45:22.872Z,9.13
2023-01-04T05:47:49.181Z,9.00
2023-01-04T05:50:15.507Z,8.25
2023-01-04T05:52:41.834Z,8.38
2023-01-04T05:55:08.144Z,7.85
2023-01-04T05:57:34.496Z,7.75
2023-01-04T06:00:00.828Z,8.00
2023-01-04T06:02:27.315Z,7.70
2023-01-04T06:04:58.676Z,7.22
2023-01-04T06:07:25.817Z,7.30
2023-01-04T06:09:52.208Z,7.93
2023-01-04T06:12:18.520Z,7.15
2023-01-04T06:14:44.922Z,7.57
2023-01-04T06:17:11.345Z,7.00
2023-01-04T06:19:37.753Z,6.72
2023-01-04T06:22:04.329Z,7.40
2023-01-04T06:24:30.717Z,8.30
2023-01-04T06:26:57.044Z,7.50
2023-01-04T06:29:23.340Z,7.68
2023-01-04T06:31:49.700Z,8.63
2023-01-04T06:34:16.006Z,7.78
2023-01-04T06:36:42.358Z,8.10
2023-01-04T06:39:08.815Z,8.15
2023-01-04T06:41:35.167Z,7.82
2023-01-04T06:44:01.504Z,8.82
2023-01-04T06:46:27.877Z,8.75
2023-01-04T06:48:54.249Z,8.05
2023-01-04T06:51:20.606Z,9.23
2023-01-04T06:53:46.951Z,8.85
2023-01-04T06:56:13.290Z,9.05
2023-01-04T06:58:39.617Z,8.43
2023-01-04T07:01:05.993Z,8.68
2023-01-04T07:03:32.330Z,8.60
2023-01-04T07:05:58.667Z,8.90
2023-01-04T07:08:25.032Z,8.10
2023-01-04T07:10:51.358Z,8.65
2023-01-04T07:13:17.727Z,8.07
2023-01-04T07:15:44.146Z,7.55
2023-01-04T07:18:10.608Z,7.93
2023-01-04T07:20:36.990Z,8.40
2023-01-04T07:23:03.337Z,7.75
2023-01-04T07:25:29.688Z,7.15
2023-01-04T07:27:56.025Z,7.80
2023-01-04T07:30:22.397Z,7.37
2023-01-04T07:32:48.702Z,7.50
2023-01-04T07:35:15.026Z,7.20
2023-01-04T07:37:41.393Z,6.72
2023-01-04T07:40:07.724Z,7.03
2023-01-04T07:42:34.035Z,6.28
2023-01-04T07:45:00.441Z,6.25
2023-01-04T07:47:26.750Z,6.87
2023-01-04T07:49:53.111Z,6.07
2023-01-04T07:52:19.492Z,6.47
2023-01-04T07:54:45.868Z,6.12
2023-01-04T07:57:12.206Z,5.95
2023-01-04T07:59:38.525Z,5.90
2023-01-04T08:02:05.121Z,4.87
2023-01-04T08:04:35.193Z,5.50
2023-01-04T08:07:01.895Z,5.45
2023-01-04T08:09:28.212Z,5.40
2023-01-04T08:11:54.517Z,5.97
2023-01-04T08:14:21.060Z,5.43
2023-01-04T08:16:47.368Z,5.85
2023-01-04T08:19:13.683Z,5.57
2023-01-04T08:21:40.020Z,4.97
2023-01-04T08:24:06.385Z,5.00
2023-01-04T08:26:32.720Z,5.43
2023-01-04T08:28:59.083Z,4.62
2023-01-04T08:31:25.455Z,5.35
2023-01-04T08:33:51.819Z,5.20
2023-01-04T08:36:22.711Z,4.78
2023-01-04T08:39:01.421Z,4.90
2023-01-04T08:41:56.616Z,4.97
2023-01-04T08:44:14.608Z,4.90
2023-01-04T08:46:41.047Z,4.55
2023-01-04T08:49:07.441Z,3.92
2023-01-04T08:51:33.757Z,4.75
2023-01-04T08:54:00.145Z,4.22
2023-01-04T08:56:26.516Z,4.45
2023-01-04T08:58:52.905Z,4.95
2023-01-04T09:01:19.279Z,4.87
2023-01-04T09:03:45.677Z,4.25
2023-01-04T09:06:11.995Z,4.82
2023-01-04T09:08:38.303Z,4.47
2023-01-04T09:11:04.712Z,4.43
2023-01-04T09:13:31.038Z,4.70
2023-01-04T09:15:57.429Z,4.00
2023-01-04T09:18:32.611Z,4.53
2023-01-04T09:21:00.846Z,4.43
2023-01-04T09:23:29.027Z,3.78
2023-01-04T09:25:55.354Z,3.33
2023-01-04T09:28:21.673Z,3.15
2023-01-04T09:30:48.038Z,3.58
2023-01-04T09:33:14.365Z,3.10
2023-01-04T09:35:40.708Z,2.58
2023-01-04T09:38:07.027Z,2.92
2023-01-04T09:40:33.376Z,2.60
2023-01-04T09:43:21.364Z,2.62
2023-01-04T09:45:45.994Z,2.15
2023-01-04T09:48:12.346Z,2.15
2023-01-04T09:50:38.683Z,1.98
2023-01-04T09:53:05.023Z,2.87
2023-01-04T09:55:37.159Z,2.40
2023-01-04T09:58:06.544Z,3.00
2023-01-04T10:00:34.507Z,2.50
2023-01-04T10:03:02.751Z,2.70
2023-01-04T10:05:29.254Z,2.58
2023-01-04T10:07:55.629Z,2.90
2023-01-04T10:10:22.009Z,2.50
2023-01-04T10:12:48.412Z,2.22
2023-01-04T10:15:15.037Z,2.20
2023-01-04T10:23:13.950Z,2.58
2023-01-04T10:25:40.304Z,2.62
2023-01-04T10:28:06.628Z,2.87
2023-01-04T10:30:32.965Z,2.40
2023-01-04T10:32:59.295Z,2.80
2023-01-04T10:35:25.665Z,2.50
2023-01-04T10:37:51.966Z,3.12
2023-01-04T10:40:18.449Z,3.05
2023-01-04T10:42:44.941Z,2.92
2023-01-04T10:45:11.298Z,1.60
2023-01-04T10:47:37.622Z,1.40
2023-01-04T10:50:03.984Z,1.20
2023-01-04T10:52:30.304Z,1.20
2023-01-04T10:54:56.710Z,0.93
2023-01-04T10:57:23.033Z,1.27
2023-01-04T10:59:49.357Z,1.10
2023-01-04T11:02:15.788Z,1.20
2023-01-04T11:04:42.268Z,1.00
2023-01-04T11:07:08.633Z,0.85
2023-01-04T11:09:35.270Z,1.00
2023-01-04T11:12:01.605Z,1.25
2023-01-04T11:14:33.301Z,1.80
2023-01-04T11:17:03.244Z,1.00
2023-01-04T11:19:29.589Z,1.08
2023-01-04T11:21:58.363Z,1.20
2023-01-04T11:24:33.232Z,2.70
2023-01-04T11:26:59.978Z,1.23
2023-01-04T11:29:26.354Z,1.30
2023-01-04T11:31:53.620Z,1.87
2023-01-04T11:34:20.139Z,1.20
2023-01-04T11:36:46.474Z,1.25
2023-01-04T11:39:12.803Z,1.20
2023-01-04T11:41:39.171Z,1.50
2023-01-04T11:44:05.592Z,1.73
2023-01-04T11:46:32.097Z,1.25
2023-01-04T11:48:58.547Z,1.00
2023-01-04T11:51:28.876Z,1.20
2023-01-04T11:53:55.226Z,1.30
2023-01-04T11:56:21.607Z,1.00
2023-01-04T11:58:47.916Z,1.48
2023-01-04T12:01:14.402Z,1.00
2023-01-04T12:03:40.781Z,1.05
2023-01-04T12:06:07.101Z,1.00
2023-01-04T12:08:33.469Z,1.10
2023-01-04T12:10:59.861Z,1.10
2023-01-04T12:13:26.175Z,1.67
2023-01-04T12:15:52.499Z,1.20
2023-01-04T12:18:18.900Z,1.08
2023-01-04T12:20:45.245Z,1.20
2023-01-04T12:23:11.548Z,0.90
2023-01-04T12:25:37.863Z,1.15
2023-01-04T12:28:04.220Z,3.03
2023-01-04T12:30:30.539Z,1.37
2023-01-04T12:32:56.941Z,1.15
2023-01-04T12:35:23.256Z,1.10
2023-01-04T12:37:49.825Z,1.60
2023-01-04T12:40:16.236Z,1.50
2023-01-04T12:42:42.561Z,1.35
2023-01-04T12:45:08.904Z,1.35
2023-01-04T12:47:54.043Z,1.45
2023-01-04T12:50:20.667Z,1.10
2023-01-04T12:53:19.858Z,1.58
2023-01-04T12:55:33.300Z,1.60
2023-01-04T12:57:59.637Z,1.55
2023-01-04T13:00:25.948Z,1.08
2023-01-04T13:02:52.833Z,2.20
2023-01-04T13:08:05.674Z,2.47
2023-01-04T13:10:32.757Z,1.45
2023-01-04T13:12:59.100Z,1.58
2023-01-04T13:15:25.432Z,1.50
2023-01-04T13:17:51.821Z,1.50
2023-01-04T13:20:18.205Z,1.60
2023-01-04T13:22:44.572Z,1.62
2023-01-04T13:25:10.893Z,1.90
2023-01-04T13:27:37.257Z,1.62
2023-01-04T13:30:04.365Z,1.17
2023-01-04T13:32:30.715Z,1.30
2023-01-04T13:34:59.701Z,1.30
2023-01-04T13:37:26.056Z,1.45
2023-01-04T13:39:52.389Z,1.15
2023-01-04T13:42:18.699Z,1.27
2023-01-04T13:45:18.077Z,1.17
2023-01-04T13:47:31.346Z,1.20
2023-01-04T13:49:57.662Z,1.17
2023-01-04T13:52:50.509Z,1.00
2023-01-04T13:55:10.394Z,1.20
2023-01-04T13:57:36.709Z,1.20
2023-01-04T14:00:03.029Z,1.10
2023-01-04T14:02:31.449Z,1.23
2023-01-04T14:04:57.882Z,1.45
2023-01-04T14:07:24.682Z,1.17
2023-01-04T14:09:51.547Z,1.10
2023-01-04T14:12:17.896Z,0.80
2023-01-04T14:14:44.236Z,0.80
2023-01-04T14:17:10.581Z,0.98
2023-01-04T14:19:36.915Z,1.20
2023-01-04T14:22:03.235Z,1.62
2023-01-04T14:25:07.837Z,1.12
2023-01-04T14:27:15.864Z,1.08
2023-01-04T14:29:42.176Z,1.17
2023-01-04T14:32:08.498Z,0.95
2023-01-04T14:34:34.819Z,1.10
2023-01-04T14:37:01.129Z,0.95
2023-01-04T14:39:27.520Z,1.10
2023-01-04T14:41:53.933Z,1.60
2023-01-04T14:44:24.377Z,1.45
2023-01-04T14:46:50.745Z,1.10
2023-01-04T14:49:17.452Z,1.17
2023-01-04T14:51:43.917Z,0.90
2023-01-04T14:54:10.903Z,1.20
2023-01-04T14:56:37.221Z,1.02
2023-01-04T14:59:03.572Z,1.25
2023-01-04T15:01:30.068Z,1.10
2023-01-04T15:03:56.694Z,1.10
2023-01-04T15:06:23.110Z,0.90
2023-01-04T15:08:50.244Z,0.95
2023-01-04T15:11:17.865Z,0.90
2023-01-04T15:13:44.511Z,1.10
2023-01-04T15:16:10.954Z,1.02
2023-01-04T15:18:37.343Z,1.00
2023-01-04T15:21:03.693Z,1.30
2023-01-04T15:23:30.069Z,1.10
2023-01-04T15:25:56.614Z,1.10
2023-01-04T15:28:24.330Z,0.82
2023-01-04T15:30:50.799Z,0.80
2023-01-04T15:33:17.233Z,1.40
2023-01-04T15:35:43.551Z,0.98
2023-01-04T15:38:15.985Z,1.10
2023-01-04T15:40:44.236Z,1.23
2023-01-04T15:43:10.747Z,1.00
2023-01-04T15:45:37.160Z,0.93
2023-01-04T15:48:03.571Z,1.00
2023-01-04T15:50:30.390Z,1.10
2023-01-04T15:52:57.187Z,0.95
2023-01-04T15:55:23.563Z,1.15
2023-01-04T15:57:50.053Z,0.98
2023-01-04T16:00:16.420Z,1.30
2023-01-04T16:02:42.853Z,1.00
2023-01-04T16:05:09.323Z,0.90
2023-01-04T16:07:36.707Z,0.95
2023-01-04T16:10:03.422Z,0.98
2023-01-04T16:12:42.110Z,0.95
2023-01-04T16:15:08.430Z,0.90
2023-01-04T16:17:34.759Z,1.00
2023-01-04T16:20:01.071Z,0.88
2023-01-04T16:22:27.397Z,1.05
2023-01-04T16:25:10.895Z,0.80
2023-01-04T16:27:39.452Z,1.00
2023-01-04T16:30:05.937Z,0.73
2023-01-04T16:32:32.385Z,1.20
2023-01-04T16:34:58.774Z,1.00
2023-01-04T16:37:25.089Z,1.10
2023-01-04T16:40:08.150Z,0.82
2023-01-04T16:42:35.145Z,0.93
2023-01-04T16:45:01.536Z,0.80
2023-01-04T16:47:27.902Z,0.90
2023-01-04T16:49:54.452Z,0.90
2023-01-04T16:52:20.948Z,0.88
2023-01-04T16:54:47.316Z,0.80
2023-01-04T16:57:13.666Z,0.50
2023-01-04T16:59:40.084Z,1.00
2023-01-04T17:02:06.485Z,0.68
2023-01-04T17:04:32.884Z,0.80
2023-01-04T17:06:59.209Z,0.80
2023-01-04T17:09:25.589Z,0.77
2023-01-04T17:14:49.079Z,0.90
2023-01-04T17:17:22.509Z,0.93
2023-01-04T17:19:48.826Z,0.90
2023-01-04T17:22:15.156Z,0.73
2023-01-04T17:24:41.474Z,0.70
2023-01-04T17:27:07.798Z,1.00
2023-01-04T17:29:34.114Z,0.80
2023-01-04T17:32:00.477Z,0.70
2023-01-04T17:34:26.881Z,0.80
2023-01-04T17:36:53.247Z,0.85
2023-01-04T17:39:21.036Z,0.75
2023-01-04T17:41:47.478Z,0.80
2023-01-04T17:44:13.804Z,0.70
2023-01-04T17:46:40.170Z,0.80
2023-01-04T17:49:23.873Z,0.88
2023-01-04T17:51:54.527Z,0.73
2023-01-04T17:54:21.353Z,0.88
2023-01-04T17:56:47.698Z,0.77
2023-01-04T17:59:14.084Z,0.88
2023-01-04T18:01:40.590Z,0.80
2023-01-04T18:04:06.952Z,0.98
2023-01-04T18:06:33.336Z,0.80
2023-01-04T18:08:59.654Z,0.65
2023-01-04T18:11:25.977Z,0.80
2023-01-04T18:13:53.253Z,0.80
2023-01-04T18:16:24.302Z,0.70
2023-01-04T18:18:51.326Z,0.70
2023-01-04T18:21:27.950Z,0.65
2023-01-04T18:24:34.066Z,0.55
2023-01-04T18:27:10.594Z,0.75
2023-01-04T18:29:27.952Z,0.60
2023-01-04T18:31:54.349Z,0.68
2023-01-04T18:34:20.993Z,0.70
2023-01-04T18:36:47.310Z,0.75
2023-01-04T18:39:13.683Z,0.70
2023-01-04T18:41:40.011Z,0.60
2023-01-04T18:44:31.361Z,0.80
2023-01-04T18:46:52.935Z,0.70
2023-01-04T18:49:19.266Z,0.60
2023-01-04T18:51:45.610Z,0.60
2023-01-04T18:54:11.947Z,0.70
2023-01-04T18:56:39.515Z,0.50
2023-01-04T18:59:05.816Z,0.60
2023-01-04T19:01:32.169Z,0.65
2023-01-04T19:03:58.510Z,0.50
2023-01-04T19:06:24.917Z,0.50
2023-01-04T19:08:56.280Z,0.50
2023-01-04T19:11:24.497Z,0.43
2023-01-04T19:13:52.441Z,0.60
2023-01-04T19:16:18.886Z,0.57
2023-01-04T19:18:45.236Z,0.60
2023-01-04T19:21:11.567Z,0.43
2023-01-04T19:23:38.107Z,0.60
2023-01-04T19:26:04.424Z,0.50
2023-01-04T19:28:30.730Z,0.50
2023-01-04T19:30:57.184Z,0.65
2023-01-04T19:33:23.529Z,0.60
2023-01-04T19:35:49.925Z,0.47
2023-01-04T19:38:16.394Z,0.52
2023-01-04T19:40:42.817Z,0.60
2023-01-04T19:43:09.166Z,0.50
2023-01-04T19:45:35.489Z,0.50
2023-01-04T19:48:01.793Z,0.40
2023-01-04T19:50:28.130Z,0.40
2023-01-04T19:52:54.437Z,0.60
2023-01-04T19:55:20.779Z,0.60
2023-01-04T19:57:47.101Z,0.40
2023-01-04T20:00:13.412Z,0.75
2023-01-04T20:02:39.834Z,0.50
2023-01-04T20:05:07.049Z,0.50
2023-01-04T20:07:33.372Z,0.65
2023-01-04T20:09:59.710Z,0.40
2023-01-04T20:12:26.073Z,0.70
2023-01-04T20:14:52.427Z,0.70
2023-01-04T20:17:18.849Z,0.60
2023-01-04T20:19:45.166Z,0.50
2023-01-04T20:22:11.532Z,0.50
2023-01-04T20:24:37.863Z,0.65
2023-01-04T20:27:04.217Z,0.50
2023-01-04T20:29:30.591Z,0.60
2023-01-04T20:31:56.900Z,0.57
2023-01-04T20:34:23.251Z,0.30
2023-01-04T20:36:49.575Z,0.50
2023-01-04T20:39:15.891Z,0.30
2023-01-04T20:42:02.218Z,0.40
2023-01-04T20:44:28.590Z,0.50
2023-01-04T20:46:54.950Z,0.40
2023-01-04T20:49:21.904Z,0.60
2023-01-04T20:51:48.256Z,0.40
2023-01-04T20:54:14.617Z,0.40
2023-01-04T20:56:40.934Z,0.50
2023-01-04T20:59:07.283Z,0.75
2023-01-04T21:01:33.708Z,0.40
2023-01-04T21:04:00.239Z,0.52
2023-01-04T21:06:26.565Z,0.60
2023-01-04T21:08:54.876Z,0.47
2023-01-04T21:11:21.435Z,0.47
2023-01-04T21:13:51.236Z,0.60
2023-01-04T21:16:17.553Z,0.50
2023-01-04T21:18:43.976Z,0.40
2023-01-04T21:21:10.297Z,0.40
2023-01-04T21:23:38.308Z,0.60
2023-01-04T21:26:04.642Z,0.57
2023-01-04T21:28:30.936Z,0.50
2023-01-04T21:30:57.257Z,0.60
2023-01-04T21:33:28.416Z,0.50
2023-01-04T21:35:54.731Z,0.40
2023-01-04T21:38:21.067Z,0.40
2023-01-04T21:40:47.391Z,0.47
2023-01-04T21:43:13.740Z,0.52
2023-01-04T21:45:40.062Z,0.30
2023-01-04T21:48:06.449Z,0.43
2023-01-04T21:50:32.783Z,0.40
2023-01-04T21:52:59.127Z,0.50
2023-01-04T21:55:30.846Z,0.60
2023-01-04T21:57:58.861Z,0.57
2023-01-04T22:00:25.267Z,0.50
2023-01-04T22:02:51.700Z,0.60
2023-01-04T22:05:18.087Z,0.60
2023-01-04T22:07:44.468Z,0.50
2023-01-04T22:10:10.845Z,0.60
2023-01-04T22:12:37.221Z,0.60
2023-01-04T22:15:03.535Z,0.50
2023-01-04T22:17:29.871Z,0.60
2023-01-04T22:19:56.205Z,0.50
2023-01-04T22:22:22.524Z,0.50
2023-01-04T22:24:48.861Z,0.70
2023-01-04T22:27:15.186Z,0.55
2023-01-04T22:29:41.515Z,0.60
2023-01-04T22:32:07.951Z,0.70
2023-01-04T22:34:34.256Z,0.60
2023-01-04T22:37:00.611Z,0.60
2023-01-04T22:39:26.986Z,0.60
2023-01-04T22:41:53.299Z,0.70
2023-01-04T22:44:19.627Z,0.60
2023-01-04T22:46:46.162Z,0.90
2023-01-04T22:49:12.533Z,0.70
2023-01-04T22:51:40.846Z,1.02
2023-01-04T22:54:07.256Z,0.88
2023-01-04T22:56:33.572Z,0.75
2023-01-04T22:58:59.920Z,1.00
2023-01-04T23:01:26.358Z,1.00
2023-01-04T23:03:52.964Z,1.20
2023-01-04T23:06:19.476Z,0.90
2023-01-04T23:08:45.809Z,0.80
2023-01-04T23:11:12.148Z,0.90
2023-01-04T23:13:38.477Z,0.60
2023-01-04T23:16:05.624Z,0.80
2023-01-04T23:18:31.997Z,0.90
2023-01-04T23:20:58.302Z,0.70
2023-01-04T23:23:24.661Z,0.82
2023-01-04T23:25:51.048Z,0.90
2023-01-04T23:28:17.409Z,1.27
2023-01-04T23:30:44.093Z,1.10
2023-01-04T23:33:10.389Z,0.73
2023-01-04T23:35:36.701Z,0.98
2023-01-04T23:38:03.013Z,1.08
2023-01-04T23:40:29.369Z,0.82
2023-01-04T23:42:59.613Z,0.70
2023-01-04T23:45:26.132Z,0.93
2023-01-04T23:47:52.471Z,0.95
2023-01-04T23:50:18.888Z,0.90
2023-01-04T23:52:45.206Z,0.80
2023-01-04T23:55:11.547Z,0.80
2023-01-04T23:57:37.870Z,0.68
